createdAt,value
2019-02-05T00:04:19.018Z,7.50
2019-02-05T00:06:49.285Z,6.50
2019-02-05T00:09:19.702Z,6.73
2019-02-05T00:11:50.078Z,6.73
2019-02-05T00:14:20.464Z,6.30
2019-02-05T00:16:50.842Z,7.27
2019-02-05T00:19:21.267Z,6.90
2019-02-05T00:21:51.639Z,5.93
2019-02-05T00:24:21.989Z,6.60
2019-02-05T00:26:52.480Z,6.17
2019-02-05T00:29:23.054Z,7.30
2019-02-05T00:31:53.703Z,6.17
2019-02-05T00:34:24.029Z,6.27
2019-02-05T00:36:54.474Z,5.40
2019-02-05T00:39:24.869Z,6.57
2019-02-05T00:42:57.725Z,6.50
2019-02-05T00:46:02.033Z,6.30
2019-02-05T00:51:28.669Z,6.73
2019-02-05T00:57:38.731Z,6.30
2019-02-05T01:05:04.529Z,5.77
2019-02-05T01:08:21.747Z,6.73
2019-02-05T01:30:11.546Z,6.60
2019-02-05T01:32:42.001Z,7.30
2019-02-05T01:35:12.574Z,6.73
2019-02-05T01:40:36.348Z,7.27
2019-02-05T01:43:06.687Z,6.27
2019-02-05T01:45:37.038Z,6.27
2019-02-05T01:49:03.293Z,7.00
2019-02-05T01:51:33.661Z,6.80
2019-02-05T02:10:25.924Z,6.90
2019-02-05T02:12:56.488Z,7.03
2019-02-05T02:15:27.050Z,7.40
2019-02-05T02:17:57.467Z,7.53
2019-02-05T02:20:27.993Z,6.97
2019-02-05T02:22:58.680Z,7.40
2019-02-05T02:25:29.091Z,7.40
2019-02-05T02:27:59.594Z,7.00
2019-02-05T02:31:50.353Z,7.33
2019-02-05T02:34:20.718Z,8.00
2019-02-05T02:36:51.074Z,8.03
2019-02-05T02:39:21.524Z,6.87
2019-02-05T02:41:51.872Z,6.60
2019-02-05T02:45:38.808Z,6.83
2019-02-05T02:49:05.193Z,7.73
2019-02-05T02:55:25.628Z,6.73
2019-02-05T02:57:55.994Z,7.00
2019-02-05T03:00:26.378Z,6.90
2019-02-05T03:02:56.740Z,7.20
2019-02-05T03:05:27.553Z,7.77
2019-02-05T03:07:58.148Z,6.97
2019-02-05T03:10:30.572Z,7.10
2019-02-05T03:13:00.990Z,6.50
2019-02-05T03:15:31.449Z,6.37
2019-02-05T03:18:01.925Z,6.93
2019-02-05T03:20:32.840Z,6.80
2019-02-05T03:23:03.201Z,6.70
2019-02-05T03:29:19.222Z,6.40
2019-02-05T03:31:37.571Z,6.40
2019-02-05T03:34:27.119Z,6.03
2019-02-05T03:36:57.695Z,6.57
2019-02-05T03:39:28.677Z,6.83
2019-02-05T03:41:59.214Z,6.33
2019-02-05T03:44:29.672Z,7.20
2019-02-05T03:47:00.150Z,6.37
2019-02-05T03:49:30.568Z,6.90
2019-02-05T04:01:21.120Z,6.80
2019-02-05T04:04:52.783Z,6.77
2019-02-05T04:12:05.596Z,6.63
2019-02-05T04:25:41.523Z,7.23
2019-02-05T04:29:23.389Z,6.60
2019-02-05T04:33:19.593Z,6.87
2019-02-05T04:36:47.059Z,6.70
2019-02-05T04:40:37.172Z,6.90
2019-02-05T04:48:25.548Z,6.37
2019-02-05T04:52:01.585Z,6.60
2019-02-05T04:59:16.416Z,7.37
2019-02-05T05:02:13.934Z,7.47
2019-02-05T05:06:15.510Z,7.37
2019-02-05T05:09:36.230Z,7.27
2019-02-05T05:12:28.073Z,6.70
2019-02-05T05:18:15.316Z,7.30
2019-02-05T05:31:00.029Z,7.20
2019-02-05T05:33:30.307Z,7.20
2019-02-05T05:36:01.489Z,6.83
2019-02-05T05:38:32.080Z,7.00
2019-02-05T05:41:02.343Z,7.90
2019-02-05T05:43:32.807Z,8.20
2019-02-05T05:46:03.128Z,8.33
2019-02-05T05:48:33.950Z,7.00
2019-02-05T05:54:47.276Z,7.70
2019-02-05T05:58:21.866Z,7.10
2019-02-05T06:00:38.553Z,7.27
2019-02-05T06:03:09.096Z,7.27
2019-02-05T06:05:39.965Z,7.37
2019-02-05T06:08:10.783Z,8.00
2019-02-05T06:10:41.793Z,7.50
2019-02-05T06:13:12.338Z,7.67
2019-02-05T06:15:42.745Z,7.03
2019-02-05T06:18:13.074Z,6.17
2019-02-05T06:20:43.765Z,6.90
2019-02-05T06:23:14.113Z,7.73
2019-02-05T06:25:44.617Z,7.37
2019-02-05T06:28:15.136Z,7.77
2019-02-05T06:30:45.682Z,7.17
2019-02-05T06:36:36.605Z,7.80
2019-02-05T06:39:09.991Z,7.40
2019-02-05T06:41:40.602Z,7.70
2019-02-05T06:44:12.240Z,7.17
2019-02-05T06:49:34.266Z,7.23
2019-02-05T06:52:04.802Z,7.47
2019-02-05T06:57:45.819Z,8.20
2019-02-05T07:00:20.470Z,8.50
2019-02-05T07:03:09.838Z,7.90
2019-02-05T07:05:40.339Z,7.77
2019-02-05T07:08:10.770Z,8.37
2019-02-05T07:10:41.117Z,8.07
2019-02-05T07:13:12.535Z,8.77
2019-02-05T07:15:42.860Z,8.90
2019-02-05T07:18:13.218Z,8.83
2019-02-05T07:20:43.605Z,9.97
2019-02-05T07:23:14.080Z,8.60
2019-02-05T07:28:35.572Z,10.00
2019-02-05T07:33:56.711Z,9.97
2019-02-05T07:36:26.912Z,9.97
2019-02-05T07:38:57.370Z,10.50
2019-02-05T07:41:27.922Z,10.57
2019-02-05T07:43:58.445Z,9.90
2019-02-05T07:46:29.743Z,10.53
2019-02-05T07:49:00.833Z,10.93
2019-02-05T07:51:35.339Z,11.37
2019-02-05T07:54:08.178Z,11.17
2019-02-05T08:00:45.923Z,11.07
2019-02-05T08:03:16.726Z,11.43
2019-02-05T08:09:39.894Z,11.77
2019-02-05T08:12:31.009Z,11.00
2019-02-05T08:15:09.974Z,12.00
2019-02-05T08:18:09.934Z,12.40
2019-02-05T08:23:09.173Z,12.60
2019-02-05T08:24:01.410Z,12.00
2019-02-05T08:26:32.612Z,12.53
2019-02-05T08:33:16.879Z,11.93
2019-02-05T08:42:17.815Z,13.07
2019-02-05T08:46:16.614Z,12.77
2019-02-05T08:52:44.055Z,13.63
2019-02-05T08:55:15.764Z,14.30
2019-02-05T08:57:46.643Z,12.57
2019-02-05T09:01:19.279Z,46.03
2019-02-05T09:04:51.447Z,30.20
2019-02-05T09:12:10.039Z,16.53
2019-02-05T09:15:39.858Z,63.47
2019-02-05T09:27:57.462Z,39.40
2019-02-05T09:35:08.315Z,14.33
2019-02-05T09:37:36.264Z,22.40
2019-02-05T09:40:54.577Z,16.60
2019-02-05T09:43:25.320Z,15.60
2019-02-05T09:46:22.006Z,15.37
2019-02-05T09:49:03.761Z,22.60
2019-02-05T09:52:48.772Z,13.07
2019-02-05T09:55:47.782Z,20.97
2019-02-05T09:58:53.784Z,14.40
2019-02-05T10:11:49.899Z,19.83
2019-02-05T10:14:23.181Z,20.40
2019-02-05T10:16:54.399Z,21.73
2019-02-05T10:26:01.932Z,38.57
2019-02-05T10:29:08.201Z,27.23
2019-02-05T10:31:38.566Z,29.63
2019-02-05T10:34:08.910Z,29.53
2019-02-05T10:36:39.749Z,17.47
2019-02-05T10:50:44.585Z,15.50
2019-02-05T10:53:14.881Z,18.20
2019-02-05T10:55:45.382Z,24.20
2019-02-05T10:58:16.441Z,23.17
2019-02-05T11:00:47.229Z,24.47
2019-02-05T11:03:17.695Z,15.30
2019-02-05T11:12:44.205Z,16.47
2019-02-05T11:15:17.071Z,20.57
2019-02-05T11:17:47.360Z,14.97
2019-02-05T11:20:19.828Z,25.10
2019-02-05T11:34:05.107Z,26.57
2019-02-05T11:37:32.479Z,29.23
2019-02-05T11:40:56.380Z,61.60
2019-02-05T11:42:55.571Z,30.83
2019-02-05T11:45:25.941Z,70.73
2019-02-05T11:47:56.530Z,28.10
2019-02-05T11:50:28.461Z,64.77
2019-02-05T11:57:05.247Z,20.23
2019-02-05T11:59:49.503Z,21.23
2019-02-05T12:02:27.802Z,25.83
2019-02-05T12:04:58.231Z,18.00
2019-02-05T12:07:28.657Z,23.90
2019-02-05T12:13:23.579Z,35.00
2019-02-05T12:15:53.872Z,25.53
2019-02-05T12:18:24.478Z,21.23
2019-02-05T12:20:54.808Z,19.40
2019-02-05T12:24:16.565Z,17.73
2019-02-05T12:27:28.659Z,13.83
2019-02-05T12:30:45.721Z,20.37
2019-02-05T12:33:59.883Z,35.07
2019-02-05T12:36:57.542Z,27.40
2019-02-05T12:39:28.202Z,24.90
2019-02-05T12:41:58.742Z,34.17
2019-02-05T12:44:29.566Z,26.57
2019-02-05T12:47:00.139Z,34.57
2019-02-05T13:06:37.427Z,20.00
2019-02-05T13:09:41.736Z,14.87
2019-02-05T13:16:02.417Z,18.40
2019-02-05T13:21:28.628Z,17.13
2019-02-05T13:23:59.040Z,17.80
2019-02-05T13:26:29.322Z,20.60
2019-02-05T13:28:59.641Z,18.20
2019-02-05T13:32:47.562Z,18.80
2019-02-05T13:35:47.401Z,17.60
2019-02-05T13:38:36.185Z,20.10
2019-02-05T13:41:41.311Z,18.43
2019-02-05T13:44:39.171Z,17.90
2019-02-05T13:47:43.886Z,16.67
2019-02-05T13:51:08.582Z,17.37
2019-02-05T13:54:00.233Z,17.27
2019-02-05T13:56:56.204Z,16.83
2019-02-05T13:59:23.782Z,15.70
2019-02-05T14:01:54.595Z,17.50
2019-02-05T14:04:24.877Z,15.90
2019-02-05T14:06:55.864Z,17.10
2019-02-05T14:09:26.352Z,17.73
2019-02-05T14:11:56.832Z,14.73
2019-02-05T14:18:54.658Z,15.77
2019-02-05T14:21:15.252Z,17.10
2019-02-05T14:23:45.590Z,16.63
2019-02-05T14:30:19.110Z,14.33
2019-02-05T14:33:40.599Z,19.23
2019-02-05T14:36:58.544Z,19.20
2019-02-05T14:39:28.976Z,18.73
2019-02-05T14:41:59.266Z,18.47
2019-02-05T14:44:29.675Z,18.30
2019-02-05T14:47:00.031Z,18.60
2019-02-05T14:49:30.126Z,18.03
2019-02-05T14:52:00.465Z,18.27
2019-02-05T14:56:02.637Z,19.20
2019-02-05T15:08:52.087Z,12.93
2019-02-05T15:11:44.321Z,14.93
2019-02-05T15:14:43.094Z,16.10
2019-02-05T15:17:38.578Z,13.87
2019-02-05T15:20:50.521Z,15.43
2019-02-05T15:29:57.485Z,16.97
2019-02-05T15:33:31.599Z,13.33
2019-02-05T15:39:45.336Z,18.40
2019-02-05T15:42:51.042Z,19.63
2019-02-05T15:46:04.172Z,17.67
2019-02-05T15:48:49.206Z,18.50
2019-02-05T15:51:37.965Z,16.83
2019-02-05T15:54:47.715Z,17.10
2019-02-05T15:57:33.919Z,17.60
2019-02-05T16:00:40.272Z,17.53
2019-02-05T16:07:21.137Z,17.20
2019-02-05T16:09:48.910Z,16.60
2019-02-05T16:12:19.242Z,19.70
2019-02-05T16:14:49.587Z,22.47
2019-02-05T16:17:19.883Z,20.83
2019-02-05T16:21:16.422Z,21.73
2019-02-05T16:24:04.449Z,53.17
2019-02-05T16:26:42.332Z,27.70
2019-02-05T16:29:26.435Z,24.30
2019-02-05T16:32:22.044Z,26.43
2019-02-05T16:35:22.407Z,24.27
2019-02-05T16:38:07.553Z,33.63
2019-02-05T16:41:19.089Z,53.40
2019-02-05T16:44:06.166Z,22.00
2019-02-05T16:47:06.014Z,51.13
2019-02-05T16:49:46.411Z,36.37
2019-02-05T16:55:12.868Z,24.77
2019-02-05T16:57:47.968Z,21.50
2019-02-05T17:00:23.586Z,46.37
2019-02-05T17:02:53.948Z,40.30
2019-02-05T17:05:49.681Z,28.70
2019-02-05T17:11:59.511Z,25.23
2019-02-05T17:14:34.818Z,26.33
2019-02-05T17:17:22.560Z,24.03
2019-02-05T17:20:06.219Z,20.70
2019-02-05T17:22:53.674Z,24.00
2019-02-05T17:28:29.612Z,28.07
2019-02-05T17:31:37.921Z,25.13
2019-02-05T17:34:34.623Z,22.17
2019-02-05T17:37:15.950Z,22.73
2019-02-05T17:39:59.374Z,22.47
2019-02-05T17:42:43.326Z,21.10
2019-02-05T17:45:48.355Z,36.03
2019-02-05T17:51:57.253Z,27.00
2019-02-05T17:54:27.082Z,25.40
2019-02-05T17:57:42.313Z,23.57
2019-02-05T18:00:37.543Z,22.10
2019-02-05T18:03:18.664Z,28.97
2019-02-05T18:06:03.675Z,25.00
2019-02-05T18:08:54.933Z,28.53
2019-02-05T18:11:42.947Z,25.67
2019-02-05T18:14:28.954Z,40.07
2019-02-05T18:17:24.778Z,24.47
2019-02-05T18:20:06.656Z,26.07
2019-02-05T18:23:15.515Z,36.63
2019-02-05T18:26:04.084Z,44.87
2019-02-05T18:29:03.018Z,27.73
2019-02-05T18:31:43.860Z,25.63
2019-02-05T18:34:21.198Z,90.97
2019-02-05T18:37:28.437Z,53.60
2019-02-05T18:39:39.966Z,47.23
2019-02-05T18:43:07.843Z,57.33
2019-02-05T18:46:15.197Z,31.40
2019-02-05T18:49:04.279Z,54.67
2019-02-05T18:51:27.919Z,40.73
2019-02-05T18:54:01.278Z,38.17
2019-02-05T18:56:39.031Z,28.93
2019-02-05T18:59:09.494Z,28.47
2019-02-05T19:01:40.106Z,27.07
2019-02-05T19:04:10.543Z,30.30
2019-02-05T19:06:41.102Z,24.87
2019-02-05T19:09:47.869Z,31.97
2019-02-05T19:12:30.431Z,27.30
2019-02-05T19:15:11.610Z,26.70
2019-02-05T19:18:01.654Z,29.83
2019-02-05T19:20:47.201Z,37.60
2019-02-05T19:24:00.229Z,28.53
2019-02-05T19:26:29.734Z,48.40
2019-02-05T19:29:18.987Z,28.33
2019-02-05T19:31:59.079Z,27.77
2019-02-05T19:34:45.433Z,27.23
2019-02-05T19:37:33.601Z,29.60
2019-02-05T19:40:21.917Z,31.80
2019-02-05T19:43:40.451Z,30.83
2019-02-05T19:46:31.096Z,32.40
2019-02-05T19:49:06.632Z,30.10
2019-02-05T19:51:37.378Z,30.40
2019-02-05T19:54:08.094Z,31.63
2019-02-05T19:56:41.549Z,31.70
2019-02-05T19:59:12.628Z,30.40
2019-02-05T20:01:43.333Z,31.43
2019-02-05T20:05:07.818Z,30.47
2019-02-05T20:08:46.459Z,30.33
2019-02-05T20:10:52.774Z,32.47
2019-02-05T20:13:40.455Z,30.63
2019-02-05T20:16:23.067Z,37.13
2019-02-05T20:19:06.488Z,33.40
2019-02-05T20:21:55.924Z,31.00
2019-02-05T20:27:58.772Z,31.90
2019-02-05T20:30:29.349Z,31.53
2019-02-05T20:32:59.947Z,29.60
2019-02-05T20:35:30.367Z,29.43
2019-02-05T20:38:00.929Z,28.77
2019-02-05T20:40:31.455Z,28.70
2019-02-05T20:43:02.683Z,28.43
2019-02-05T20:45:32.933Z,29.90
2019-02-05T20:48:03.279Z,30.10
2019-02-05T20:50:33.663Z,29.53
2019-02-05T20:53:13.463Z,32.23
2019-02-05T20:55:40.098Z,37.33
2019-02-05T20:58:19.316Z,38.63
2019-02-05T21:00:49.778Z,45.87
2019-02-05T21:03:20.620Z,36.33
2019-02-05T21:05:50.940Z,34.37
2019-02-05T21:08:21.364Z,29.80
2019-02-05T21:10:52.383Z,32.00
2019-02-05T21:13:22.880Z,40.03
2019-02-05T21:16:04.581Z,33.90
2019-02-05T21:18:46.611Z,30.60
2019-02-05T21:21:48.604Z,29.07
2019-02-05T21:25:34.584Z,28.77
2019-02-05T21:31:33.694Z,29.63
2019-02-05T21:34:25.128Z,30.40
2019-02-05T21:37:25.010Z,29.83
2019-02-05T21:40:05.655Z,30.07
2019-02-05T21:42:49.439Z,29.50
2019-02-05T21:49:04.007Z,31.43
2019-02-05T21:52:04.032Z,32.43
2019-02-05T21:55:07.890Z,32.33
2019-02-05T21:58:02.164Z,31.73
2019-02-05T22:01:08.084Z,32.03
2019-02-05T22:03:38.573Z,31.20
2019-02-05T22:07:05.045Z,31.43
2019-02-05T22:10:38.474Z,31.17
2019-02-05T22:14:00.609Z,34.13
2019-02-05T22:20:17.404Z,29.70
2019-02-05T22:22:47.842Z,33.70
2019-02-05T22:25:22.397Z,32.80
2019-02-05T22:28:06.367Z,31.30
2019-02-05T22:30:57.228Z,31.47
2019-02-05T22:33:35.671Z,32.13
2019-02-05T22:36:12.924Z,38.90
2019-02-05T22:39:50.442Z,39.53
2019-02-05T22:43:14.941Z,49.50
2019-02-05T22:50:20.061Z,31.83
2019-02-05T22:53:25.349Z,30.50
2019-02-05T22:56:04.666Z,25.93
2019-02-05T23:03:34.280Z,36.20
2019-02-05T23:18:24.746Z,29.33
2019-02-05T23:21:32.844Z,27.87
2019-02-05T23:24:42.604Z,26.93
2019-02-05T23:27:36.952Z,27.50
2019-02-05T23:30:45.723Z,28.17
2019-02-05T23:37:26.774Z,25.60
2019-02-05T23:39:56.733Z,26.40
2019-02-05T23:42:27.490Z,27.57
2019-02-05T23:44:58.287Z,28.23
2019-02-05T23:47:28.596Z,25.63
2019-02-05T23:49:59.012Z,27.47
2019-02-05T23:52:29.424Z,27.27
2019-02-05T23:55:00.377Z,26.33
2019-02-05T23:57:30.695Z,26.10
